Time;durP1;ratioP1;P1;durP2;ratioP2;P2;SDS_P1;SDS_P2;PMS_P1;PMS_P2;Temp;Humidity;BMP_temperature;BMP_pressure;BME280_temperature;BME280_humidity;BME280_pressure;Samples;Min_cycle;Max_cycle;Signal;HPM_P1;HPM_P2
2023/07/21 00:00:21;;;;;;;3.03;2.10;;;;;;;;;;4989546;28;99890;-87
2023/07/21 00:02:49;;;;;;;4.47;1.90;;;;;;;;;;4986381;28;100885;-88
2023/07/21 00:05:16;;;;;;;12.25;2.60;;;;;;;;;;4987663;28;99581;-87
2023/07/21 00:07:42;;;;;;;3.47;1.70;;;;;;;;;;4992719;28;103347;-87
2023/07/21 00:10:10;;;;;;;14.27;2.13;;;;;;;;;;4969882;28;99134;-87
2023/07/21 00:12:47;;;;;;;2.35;2.13;;;;;;;;;;4968409;28;100528;-88
2023/07/21 00:15:17;;;;;;;4.70;2.08;;;;;;;;;;4982188;28;100659;-88
2023/07/21 00:17:47;;;;;;;3.42;1.67;;;;;;;;;;4968441;28;98673;-87
2023/07/21 00:20:21;;;;;;;4.18;2.20;;;;;;;;;;4969214;28;102758;-87
2023/07/21 00:22:49;;;;;;;5.20;2.00;;;;;;;;;;4969230;28;100422;-87
2023/07/21 00:25:16;;;;;;;6.07;2.13;;;;;;;;;;4967709;28;98757;-87
2023/07/21 00:27:43;;;;;;;5.30;2.00;;;;;;;;;;4970236;28;100275;-86
2023/07/21 00:30:10;;;;;;;2.95;2.08;;;;;;;;;;4974448;28;101617;-87
2023/07/21 00:32:37;;;;;;;3.72;2.33;;;;;;;;;;4969635;28;100204;-87
2023/07/21 00:35:08;;;;;;;2.70;2.20;;;;;;;;;;4959383;28;103392;-87
2023/07/21 00:37:35;;;;;;;4.10;2.30;;;;;;;;;;4977991;28;98596;-87
2023/07/21 00:40:04;;;;;;;6.13;2.30;;;;;;;;;;4970804;28;100215;-88
2023/07/21 00:42:30;;;;;;;4.25;2.53;;;;;;;;;;4970828;28;100114;-87
2023/07/21 00:44:57;;;;;;;5.45;2.17;;;;;;;;;;4971932;28;98563;-87
2023/07/21 00:47:24;;;;;;;2.15;1.90;;;;;;;;;;4970411;28;100328;-87
2023/07/21 00:49:50;;;;;;;4.78;2.40;;;;;;;;;;4969992;28;100602;-87
2023/07/21 00:52:18;;;;;;;5.40;2.45;;;;;;;;;;4973189;28;98627;-87
2023/07/21 00:54:45;;;;;;;2.70;1.98;;;;;;;;;;4969255;28;101282;-87
2023/07/21 00:57:11;;;;;;;6.80;2.70;;;;;;;;;;4970720;28;98553;-87
2023/07/21 00:59:38;;;;;;;5.15;2.50;;;;;;;;;;4964180;28;100137;-87
2023/07/21 01:02:05;;;;;;;3.22;2.40;;;;;;;;;;4972142;28;100866;-87
2023/07/21 01:04:35;;;;;;;3.88;2.70;;;;;;;;;;4970887;28;98589;-87
2023/07/21 01:07:05;;;;;;;2.90;2.70;;;;;;;;;;4971342;28;103372;-87
2023/07/21 01:09:35;;;;;;;3.25;2.60;;;;;;;;;;4991469;28;99700;-87
2023/07/21 01:12:05;;;;;;;2.87;2.57;;;;;;;;;;4982800;28;97778;-86
2023/07/21 01:14:31;;;;;;;5.93;2.70;;;;;;;;;;4994820;28;99885;-86
2023/07/21 01:17:01;;;;;;;2.67;2.20;;;;;;;;;;4983085;28;98549;-87
2023/07/21 01:19:29;;;;;;;12.88;2.70;;;;;;;;;;4971627;28;100222;-87
2023/07/21 01:22:01;;;;;;;7.65;2.60;;;;;;;;;;4972011;28;100902;-87
2023/07/21 01:24:49;;;;;;;4.95;2.13;;;;;;;;;;4971800;28;98528;-87
2023/07/21 01:27:20;;;;;;;4.45;2.90;;;;;;;;;;4972116;28;100435;-87
2023/07/21 01:29:47;;;;;;;5.90;2.65;;;;;;;;;;4970615;28;103525;-87
2023/07/21 01:32:15;;;;;;;7.88;2.88;;;;;;;;;;4971847;28;98501;-87
2023/07/21 01:34:45;;;;;;;3.80;2.72;;;;;;;;;;4972108;28;103030;-87
2023/07/21 01:37:13;;;;;;;6.05;2.78;;;;;;;;;;4973996;28;99785;-87
2023/07/21 01:39:40;;;;;;;2.80;2.60;;;;;;;;;;4969630;28;99749;-87
2023/07/21 01:42:07;;;;;;;5.50;2.58;;;;;;;;;;4968882;28;100749;-87
2023/07/21 01:44:34;;;;;;;5.95;3.25;;;;;;;;;;4968993;28;99345;-87
2023/07/21 01:47:00;;;;;;;3.40;2.63;;;;;;;;;;4970557;28;101433;-87
2023/07/21 01:49:27;;;;;;;6.80;2.97;;;;;;;;;;4976564;28;103109;-87
2023/07/21 01:51:58;;;;;;;2.65;2.45;;;;;;;;;;4970133;28;98520;-86
2023/07/21 01:54:31;;;;;;;4.97;2.78;;;;;;;;;;4970536;28;100017;-87
2023/07/21 01:57:03;;;;;;;3.55;2.78;;;;;;;;;;4973873;28;101614;-87
2023/07/21 01:59:29;;;;;;;3.10;2.70;;;;;;;;;;4968787;28;100332;-88
2023/07/21 02:01:56;;;;;;;5.20;2.75;;;;;;;;;;4971198;28;102738;-87
2023/07/21 02:04:23;;;;;;;6.63;2.72;;;;;;;;;;4970741;28;98588;-88
2023/07/21 02:06:50;;;;;;;2.60;2.40;;;;;;;;;;4969572;28;100694;-87
2023/07/21 02:09:16;;;;;;;8.30;3.08;;;;;;;;;;4970130;28;101134;-85
2023/07/21 02:11:44;;;;;;;5.07;2.47;;;;;;;;;;4991252;28;98467;-87
2023/07/21 02:14:10;;;;;;;3.55;2.60;;;;;;;;;;4974296;28;100492;-87
2023/07/21 02:16:37;;;;;;;8.82;2.55;;;;;;;;;;4969577;28;103369;-87
2023/07/21 02:19:06;;;;;;;6.43;2.78;;;;;;;;;;4973652;28;98597;-87
2023/07/21 02:21:33;;;;;;;9.52;2.58;;;;;;;;;;4970671;28;100827;-87
2023/07/21 02:23:59;;;;;;;2.70;2.50;;;;;;;;;;4969540;28;98786;-87
2023/07/21 02:26:26;;;;;;;4.47;2.70;;;;;;;;;;4971707;28;99686;-87
2023/07/21 02:28:53;;;;;;;3.00;2.55;;;;;;;;;;4971049;28;103518;-87
2023/07/21 02:31:21;;;;;;;3.88;2.28;;;;;;;;;;4968605;28;98515;-87
2023/07/21 02:33:48;;;;;;;2.65;2.45;;;;;;;;;;4968630;28;103069;-87
2023/07/21 02:36:16;;;;;;;2.55;2.35;;;;;;;;;;4969032;28;100395;-87
2023/07/21 02:38:42;;;;;;;4.50;2.92;;;;;;;;;;4969091;28;98751;-87
2023/07/21 02:41:09;;;;;;;3.80;2.63;;;;;;;;;;4990474;28;100259;-87
2023/07/21 02:43:39;;;;;;;2.50;2.30;;;;;;;;;;4969260;28;98502;-87
2023/07/21 02:46:05;;;;;;;2.40;2.20;;;;;;;;;;4969513;28;100739;-87
2023/07/21 02:48:34;;;;;;;2.53;2.25;;;;;;;;;;4969525;28;101232;-88
2023/07/21 02:51:00;;;;;;;2.65;2.33;;;;;;;;;;4976412;28;97912;-86
2023/07/21 02:53:28;;;;;;;5.32;2.42;;;;;;;;;;4961157;28;99501;-87
2023/07/21 02:55:55;;;;;;;4.65;2.55;;;;;;;;;;4984993;28;103528;-87
2023/07/21 02:58:23;;;;;;;2.97;2.15;;;;;;;;;;4969110;28;99379;-87
2023/07/21 03:00:49;;;;;;;4.13;2.17;;;;;;;;;;4963637;28;100866;-87
2023/07/21 03:03:16;;;;;;;2.20;2.00;;;;;;;;;;4972080;28;103620;-87
2023/07/21 03:05:42;;;;;;;3.10;2.10;;;;;;;;;;4967364;28;100796;-87
2023/07/21 03:08:09;;;;;;;2.63;2.03;;;;;;;;;;4968842;28;100308;-87
2023/07/21 03:10:35;;;;;;;2.75;2.00;;;;;;;;;;4969427;28;98565;-87
2023/07/21 03:13:02;;;;;;;3.42;2.10;;;;;;;;;;4969410;28;100174;-88
2023/07/21 03:15:28;;;;;;;5.55;2.50;;;;;;;;;;4985941;28;99678;-87
2023/07/21 03:17:55;;;;;;;3.60;2.15;;;;;;;;;;4974440;28;98507;-87
2023/07/21 03:20:21;;;;;;;3.25;2.63;;;;;;;;;;4970389;28;100181;-87
2023/07/21 03:22:48;;;;;;;6.15;2.30;;;;;;;;;;4969470;28;101667;-88
2023/07/21 03:25:14;;;;;;;2.63;2.20;;;;;;;;;;4972302;28;98759;-87
2023/07/21 03:27:41;;;;;;;3.25;2.35;;;;;;;;;;4973292;28;101011;-87
2023/07/21 03:30:09;;;;;;;2.92;2.20;;;;;;;;;;4970504;28;98469;-86
2023/07/21 03:32:36;;;;;;;4.38;2.20;;;;;;;;;;4968938;28;100617;-87
2023/07/21 03:35:04;;;;;;;4.68;2.28;;;;;;;;;;4970210;28;100946;-87
2023/07/21 03:37:34;;;;;;;2.53;2.30;;;;;;;;;;4969468;28;98749;-88
2023/07/21 03:40:07;;;;;;;2.47;2.27;;;;;;;;;;4968862;28;100501;-87
2023/07/21 03:42:34;;;;;;;4.22;2.83;;;;;;;;;;4968200;28;101107;-86
2023/07/21 03:45:06;;;;;;;3.05;2.50;;;;;;;;;;4968499;28;98812;-87
2023/07/21 03:47:34;;;;;;;3.83;2.28;;;;;;;;;;4972305;28;100480;-87
2023/07/21 03:50:00;;;;;;;2.67;2.35;;;;;;;;;;4969599;28;98526;-88
2023/07/21 03:52:27;;;;;;;9.38;2.58;;;;;;;;;;4967782;28;100278;-88
2023/07/21 03:54:54;;;;;;;5.38;3.13;;;;;;;;;;4969552;28;100394;-87
2023/07/21 03:57:20;;;;;;;4.07;3.20;;;;;;;;;;4969577;28;98768;-88
2023/07/21 03:59:47;;;;;;;3.72;3.17;;;;;;;;;;4969744;28;100064;-87
2023/07/21 04:02:16;;;;;;;5.88;3.67;;;;;;;;;;4971224;28;99895;-86
2023/07/21 04:04:42;;;;;;;3.40;3.10;;;;;;;;;;4973943;28;97969;-87
2023/07/21 04:07:10;;;;;;;3.90;3.25;;;;;;;;;;4975418;28;98908;-87
2023/07/21 04:09:37;;;;;;;6.15;3.08;;;;;;;;;;4973597;28;98562;-87
2023/07/21 04:12:04;;;;;;;7.15;3.65;;;;;;;;;;4971757;28;100831;-87
2023/07/21 04:14:30;;;;;;;5.13;3.38;;;;;;;;;;4971887;28;100068;-88
2023/07/21 04:16:57;;;;;;;5.95;2.70;;;;;;;;;;4971879;28;98626;-86
2023/07/21 04:19:25;;;;;;;3.20;3.00;;;;;;;;;;4972883;28;102296;-87
2023/07/21 04:21:52;;;;;;;3.70;3.10;;;;;;;;;;4972524;28;100295;-88
2023/07/21 04:24:19;;;;;;;6.00;3.60;;;;;;;;;;4971666;28;98533;-88
2023/07/21 04:26:46;;;;;;;4.57;3.40;;;;;;;;;;4982340;28;102557;-88
2023/07/21 04:29:12;;;;;;;6.78;3.40;;;;;;;;;;4974999;28;102710;-88
2023/07/21 04:31:55;;;;;;;3.80;3.50;;;;;;;;;;4976693;28;99303;-87
2023/07/21 04:34:22;;;;;;;6.15;3.30;;;;;;;;;;4990910;28;99907;-87
2023/07/21 04:36:48;;;;;;;8.38;3.33;;;;;;;;;;4969782;28;99359;-88
2023/07/21 04:39:14;;;;;;;4.28;3.35;;;;;;;;;;4971900;28;99877;-87
2023/07/21 04:41:41;;;;;;;11.45;3.75;;;;;;;;;;4955531;28;100576;-87
2023/07/21 04:44:07;;;;;;;4.50;3.83;;;;;;;;;;4971171;28;99029;-87
2023/07/21 04:46:34;;;;;;;6.10;3.70;;;;;;;;;;4971535;28;99694;-88
2023/07/21 04:49:00;;;;;;;5.15;4.20;;;;;;;;;;4972992;28;103593;-88
2023/07/21 04:51:27;;;;;;;6.82;3.90;;;;;;;;;;4974345;28;99562;-89
2023/07/21 04:53:53;;;;;;;5.80;4.20;;;;;;;;;;4971797;28;99969;-88
2023/07/21 04:56:20;;;;;;;4.80;3.88;;;;;;;;;;4972634;28;98560;-87
2023/07/21 04:58:46;;;;;;;4.70;3.88;;;;;;;;;;4970537;28;99963;-87
2023/07/21 05:01:15;;;;;;;3.90;3.28;;;;;;;;;;4965919;28;101317;-88
2023/07/21 05:03:42;;;;;;;5.78;3.92;;;;;;;;;;4971261;28;98635;-87
2023/07/21 05:06:09;;;;;;;4.70;3.95;;;;;;;;;;4972810;28;100089;-87
2023/07/21 05:08:36;;;;;;;6.40;4.28;;;;;;;;;;4971400;28;100765;-88
2023/07/21 05:11:05;;;;;;;3.92;3.63;;;;;;;;;;4971445;28;98864;-88
2023/07/21 05:13:31;;;;;;;4.28;3.72;;;;;;;;;;4972862;28;103521;-88
2023/07/21 05:16:00;;;;;;;5.72;4.25;;;;;;;;;;4972161;28;98515;-88
2023/07/21 05:18:27;;;;;;;10.85;4.13;;;;;;;;;;4969859;28;100247;-87
2023/07/21 05:20:53;;;;;;;5.50;4.18;;;;;;;;;;4969559;28;100634;-87
2023/07/21 05:23:19;;;;;;;4.35;3.90;;;;;;;;;;4973187;28;98533;-88
2023/07/21 05:25:46;;;;;;;7.32;4.35;;;;;;;;;;4970175;28;100870;-88
2023/07/21 05:28:13;;;;;;;12.07;4.57;;;;;;;;;;4979292;28;100506;-87
2023/07/21 05:30:42;;;;;;;4.65;4.20;;;;;;;;;;4974601;28;98635;-89
2023/07/21 05:33:09;;;;;;;8.65;4.40;;;;;;;;;;4982044;28;100719;-87
2023/07/21 05:35:39;;;;;;;6.55;4.28;;;;;;;;;;4989569;28;102996;-88
2023/07/21 05:38:05;;;;;;;5.75;4.32;;;;;;;;;;4971792;28;100552;-87
2023/07/21 05:40:32;;;;;;;7.63;4.68;;;;;;;;;;4969784;28;100869;-87
2023/07/21 05:42:59;;;;;;;6.93;5.15;;;;;;;;;;4972484;28;97819;-87
2023/07/21 05:45:25;;;;;;;5.00;4.57;;;;;;;;;;4970275;28;98895;-88
2023/07/21 05:47:52;;;;;;;5.28;4.18;;;;;;;;;;4969083;28;100663;-87
2023/07/21 05:50:18;;;;;;;5.15;4.35;;;;;;;;;;4970068;28;99307;-88
2023/07/21 05:52:45;;;;;;;4.47;4.07;;;;;;;;;;4970303;28;100975;-88
2023/07/21 05:55:11;;;;;;;4.85;3.90;;;;;;;;;;4969107;28;99989;-87
2023/07/21 05:57:38;;;;;;;7.22;3.63;;;;;;;;;;4972811;28;98816;-87
2023/07/21 06:00:04;;;;;;;5.53;4.18;;;;;;;;;;4952319;28;100672;-87
2023/07/21 06:02:31;;;;;;;6.75;4.05;;;;;;;;;;4974329;28;98670;-87
2023/07/21 06:04:58;;;;;;;4.50;3.55;;;;;;;;;;4991338;28;100334;-86
2023/07/21 06:07:25;;;;;;;3.92;3.50;;;;;;;;;;4979749;28;99874;-87
2023/07/21 06:09:51;;;;;;;4.90;3.83;;;;;;;;;;4956820;28;98502;-86
2023/07/21 06:12:17;;;;;;;4.00;3.33;;;;;;;;;;4966705;28;99831;-87
2023/07/21 06:14:44;;;;;;;3.30;3.00;;;;;;;;;;4968713;28;101397;-86
2023/07/21 06:17:10;;;;;;;4.38;2.80;;;;;;;;;;4971299;28;98835;-87
2023/07/21 06:19:37;;;;;;;4.45;2.95;;;;;;;;;;4969830;28;100934;-86
2023/07/21 06:22:04;;;;;;;8.32;3.17;;;;;;;;;;4968904;28;98642;-87
2023/07/21 06:24:30;;;;;;;3.83;3.40;;;;;;;;;;4971105;28;99905;-87
2023/07/21 06:26:56;;;;;;;4.45;3.50;;;;;;;;;;4968674;28;101094;-87
2023/07/21 06:29:23;;;;;;;4.03;3.58;;;;;;;;;;4969333;28;98595;-87
2023/07/21 06:31:51;;;;;;;2.97;2.70;;;;;;;;;;4970413;28;100848;-87
2023/07/21 06:34:17;;;;;;;4.78;2.92;;;;;;;;;;4974924;28;102879;-87
2023/07/21 06:36:44;;;;;;;4.03;3.42;;;;;;;;;;4969830;28;98629;-86
2023/07/21 06:39:10;;;;;;;5.93;4.20;;;;;;;;;;4970758;28;100131;-87
2023/07/21 06:41:37;;;;;;;5.45;3.85;;;;;;;;;;4965838;28;98723;-87
2023/07/21 06:44:03;;;;;;;5.80;3.90;;;;;;;;;;4974427;28;100289;-86
2023/07/21 06:46:29;;;;;;;4.78;4.13;;;;;;;;;;4975725;28;100483;-87
2023/07/21 06:48:57;;;;;;;4.68;3.80;;;;;;;;;;4969592;28;98520;-87
2023/07/21 06:51:24;;;;;;;9.23;4.55;;;;;;;;;;4967977;28;102184;-86
2023/07/21 06:53:52;;;;;;;6.18;4.25;;;;;;;;;;4977788;28;100561;-87
2023/07/21 06:56:18;;;;;;;5.05;4.63;;;;;;;;;;4967805;28;97835;-87
2023/07/21 06:58:45;;;;;;;6.13;4.68;;;;;;;;;;4967072;28;100180;-88
2023/07/21 07:01:11;;;;;;;7.57;4.93;;;;;;;;;;4967755;28;100554;-86
2023/07/21 07:03:38;;;;;;;5.20;4.70;;;;;;;;;;4962730;28;100352;-87
2023/07/21 07:06:04;;;;;;;4.90;4.30;;;;;;;;;;4950900;28;100895;-87
2023/07/21 07:08:31;;;;;;;6.20;5.20;;;;;;;;;;4955916;28;98547;-87
2023/07/21 07:10:59;;;;;;;5.32;4.70;;;;;;;;;;4970243;28;99785;-87
2023/07/21 07:13:26;;;;;;;12.65;3.33;;;;;;;;;;4969853;28;100493;-89
2023/07/21 07:15:53;;;;;;;9.18;2.92;;;;;;;;;;4968493;28;98612;-88
2023/07/21 07:18:19;;;;;;;3.40;3.10;;;;;;;;;;4969638;28;101765;-87
2023/07/21 07:20:50;;;;;;;5.15;3.33;;;;;;;;;;4968139;28;99910;-87
2023/07/21 07:23:16;;;;;;;5.85;3.83;;;;;;;;;;4973985;28;98785;-87
2023/07/21 07:25:45;;;;;;;5.50;4.10;;;;;;;;;;4968202;28;100943;-87
2023/07/21 07:28:12;;;;;;;4.78;3.47;;;;;;;;;;4968819;28;99293;-88
2023/07/21 07:30:39;;;;;;;16.17;3.75;;;;;;;;;;4969075;28;100823;-88
2023/07/21 07:33:05;;;;;;;4.18;3.00;;;;;;;;;;4967866;28;100727;-88
2023/07/21 07:35:32;;;;;;;4.55;4.15;;;;;;;;;;4969771;28;98614;-87
2023/07/21 07:37:59;;;;;;;5.15;3.40;;;;;;;;;;4970927;28;100301;-88
2023/07/21 07:40:26;;;;;;;6.25;3.97;;;;;;;;;;4972327;28;100200;-87
2023/07/21 07:42:52;;;;;;;5.45;3.50;;;;;;;;;;4971686;28;98584;-86
2023/07/21 07:45:18;;;;;;;5.25;3.63;;;;;;;;;;4985874;28;100271;-88
2023/07/21 07:47:45;;;;;;;5.55;3.72;;;;;;;;;;4974734;28;98928;-87
2023/07/21 07:50:11;;;;;;;6.20;3.65;;;;;;;;;;4960443;28;101229;-88
2023/07/21 07:52:41;;;;;;;3.35;3.05;;;;;;;;;;4975421;28;101453;-89
2023/07/21 07:55:09;;;;;;;4.78;3.55;;;;;;;;;;4970106;28;99469;-87
2023/07/21 07:57:36;;;;;;;3.78;3.35;;;;;;;;;;4970693;28;103176;-88
2023/07/21 08:00:08;;;;;;;5.13;2.83;;;;;;;;;;4969386;28;102813;-87
2023/07/21 08:02:34;;;;;;;2.28;1.15;;;;;;;;;;4974225;28;98721;-87
2023/07/21 08:05:03;;;;;;;3.92;1.05;;;;;;;;;;4973579;28;105080;-87
2023/07/21 08:07:30;;;;;;;1.20;0.90;;;;;;;;;;4965212;28;99055;-87
2023/07/21 08:09:56;;;;;;;5.32;1.10;;;;;;;;;;4971584;28;100200;-88
2023/07/21 08:12:23;;;;;;;3.63;1.17;;;;;;;;;;4968011;28;100889;-88
2023/07/21 08:14:49;;;;;;;4.78;1.23;;;;;;;;;;4970429;28;98613;-87
2023/07/21 08:17:16;;;;;;;2.90;1.00;;;;;;;;;;4969363;28;100479;-87
2023/07/21 08:19:44;;;;;;;1.73;1.00;;;;;;;;;;4970707;28;100499;-87
2023/07/21 08:22:11;;;;;;;6.05;1.13;;;;;;;;;;4971616;28;98581;-87
2023/07/21 08:24:37;;;;;;;7.38;1.10;;;;;;;;;;4970784;28;99424;-86
2023/07/21 08:27:04;;;;;;;0.82;0.82;;;;;;;;;;4975086;28;101016;-87
2023/07/21 08:29:30;;;;;;;2.78;1.00;;;;;;;;;;4973163;28;99934;-88
2023/07/21 08:31:59;;;;;;;2.85;1.05;;;;;;;;;;4971790;28;100633;-88
2023/07/21 08:34:26;;;;;;;2.22;0.95;;;;;;;;;;4970216;28;97964;-87
2023/07/21 08:36:53;;;;;;;1.95;0.95;;;;;;;;;;4971051;28;102853;-88
2023/07/21 08:39:21;;;;;;;1.15;0.93;;;;;;;;;;4971349;28;100605;-88
2023/07/21 08:41:48;;;;;;;1.17;0.90;;;;;;;;;;4970858;28;99294;-87
2023/07/21 08:44:15;;;;;;;1.95;1.10;;;;;;;;;;4971015;28;100942;-87
2023/07/21 08:46:42;;;;;;;3.78;1.05;;;;;;;;;;4964029;28;103452;-88
2023/07/21 08:49:09;;;;;;;1.30;1.20;;;;;;;;;;4972410;28;101938;-88
2023/07/21 08:51:36;;;;;;;1.58;1.00;;;;;;;;;;4971891;28;100948;-87
2023/07/21 08:54:02;;;;;;;3.08;0.90;;;;;;;;;;4971741;28;98596;-88
2023/07/21 08:56:29;;;;;;;2.25;1.00;;;;;;;;;;4968883;28;99804;-88
2023/07/21 08:58:55;;;;;;;1.77;0.80;;;;;;;;;;4970760;28;100158;-87
2023/07/21 09:01:22;;;;;;;1.40;0.95;;;;;;;;;;4969072;28;98490;-87
2023/07/21 09:03:48;;;;;;;1.08;1.08;;;;;;;;;;4971467;28;100701;-87
2023/07/21 09:06:15;;;;;;;3.03;1.40;;;;;;;;;;4969791;28;104319;-88
2023/07/21 09:08:44;;;;;;;4.65;1.25;;;;;;;;;;4970978;28;98611;-88
2023/07/21 09:11:11;;;;;;;3.20;1.40;;;;;;;;;;4972846;28;100057;-88
2023/07/21 09:13:37;;;;;;;1.38;1.30;;;;;;;;;;4971780;28;99510;-88
2023/07/21 09:16:07;;;;;;;3.55;1.50;;;;;;;;;;4969071;28;102828;-88
2023/07/21 09:18:41;;;;;;;3.50;1.58;;;;;;;;;;4979562;28;100999;-87
2023/07/21 09:21:18;;;;;;;1.92;1.70;;;;;;;;;;4972544;28;98578;-87
2023/07/21 09:23:46;;;;;;;2.33;1.70;;;;;;;;;;4952050;28;100125;-87
2023/07/21 09:26:15;;;;;;;2.85;1.50;;;;;;;;;;4967628;28;100595;-88
2023/07/21 09:28:42;;;;;;;2.60;1.80;;;;;;;;;;4970635;28;98962;-87
2023/07/21 09:31:09;;;;;;;1.90;1.80;;;;;;;;;;4971779;28;100505;-87
2023/07/21 09:33:39;;;;;;;;;;;;;;;;;;4970892;28;100242;-87
2023/07/21 09:36:08;;;;;;;2.20;1.80;;;;;;;;;;4967831;28;130126;-87
2023/07/21 09:38:35;;;;;;;4.70;1.90;;;;;;;;;;4962158;28;99402;-87
2023/07/21 09:41:05;;;;;;;3.97;1.95;;;;;;;;;;4970099;28;98583;-87
2023/07/21 09:43:34;;;;;;;3.20;1.73;;;;;;;;;;4969231;28;100764;-87
2023/07/21 09:46:02;;;;;;;5.13;1.98;;;;;;;;;;4971690;28;103702;-87
2023/07/21 09:48:42;;;;;;;4.00;1.52;;;;;;;;;;4972776;28;97848;-87
2023/07/21 09:51:09;;;;;;;1.65;1.35;;;;;;;;;;4969939;28;99800;-87
2023/07/21 09:53:39;;;;;;;3.63;1.55;;;;;;;;;;4966620;28;104052;-87
2023/07/21 09:56:05;;;;;;;;;;;;;;;;;;4973006;28;99308;-87
2023/07/21 09:58:48;;;;;;;1.88;1.30;;;;;;;;;;4970184;28;127864;-86
2023/07/21 10:01:14;;;;;;;2.35;1.20;;;;;;;;;;4966974;28;100207;-87
2023/07/21 10:03:42;;;;;;;2.13;0.90;;;;;;;;;;4968188;28;100202;-85
2023/07/21 10:06:09;;;;;;;1.35;1.20;;;;;;;;;;4969774;28;102195;-86
2023/07/21 10:08:36;;;;;;;1.75;1.63;;;;;;;;;;4971878;28;98538;-87
2023/07/21 10:11:04;;;;;;;6.22;1.85;;;;;;;;;;4969035;28;103340;-87
2023/07/21 10:13:31;;;;;;;3.17;1.77;;;;;;;;;;4969952;28;100212;-86
2023/07/21 10:16:05;;;;;;;4.85;1.90;;;;;;;;;;4973409;28;98691;-87
2023/07/21 10:18:34;;;;;;;3.42;1.88;;;;;;;;;;4966913;28;101602;-87
2023/07/21 10:21:03;;;;;;;1.83;1.60;;;;;;;;;;4969257;28;99275;-87
2023/07/21 10:23:34;;;;;;;4.13;1.50;;;;;;;;;;4968778;28;101112;-87
2023/07/21 10:26:02;;;;;;;2.17;1.60;;;;;;;;;;4968730;28;103663;-87
2023/07/21 10:28:39;;;;;;;3.38;1.80;;;;;;;;;;4969665;28;98836;-87
2023/07/21 10:31:21;;;;;;;3.20;1.60;;;;;;;;;;4969311;28;100383;-88
2023/07/21 10:34:11;;;;;;;2.95;1.98;;;;;;;;;;4951262;28;100656;-87
2023/07/21 10:36:42;;;;;;;3.78;1.63;;;;;;;;;;4952297;28;98460;-87
2023/07/21 10:39:14;;;;;;;3.22;1.42;;;;;;;;;;4969000;28;100125;-87
2023/07/21 10:41:40;;;;;;;2.88;2.10;;;;;;;;;;4970466;28;98561;-88
2023/07/21 10:44:08;;;;;;;32.10;3.22;;;;;;;;;;4971008;28;100028;-89
2023/07/21 10:46:35;;;;;;;2.85;1.48;;;;;;;;;;4972394;28;104279;-87
2023/07/21 10:49:02;;;;;;;7.78;1.40;;;;;;;;;;4967886;28;98975;-87
2023/07/21 10:51:29;;;;;;;1.13;1.00;;;;;;;;;;4971254;28;100256;-87
2023/07/21 10:53:56;;;;;;;2.13;1.10;;;;;;;;;;4970388;28;100701;-87
2023/07/21 10:56:22;;;;;;;2.45;1.33;;;;;;;;;;4967292;28;98666;-87
2023/07/21 10:58:49;;;;;;;2.03;1.20;;;;;;;;;;4957817;28;100535;-87
2023/07/21 11:01:19;;;;;;;3.40;1.33;;;;;;;;;;4972765;28;100785;-90
2023/07/21 11:03:48;;;;;;;4.95;1.15;;;;;;;;;;4969947;28;103308;-90
2023/07/21 11:06:14;;;;;;;1.30;1.20;;;;;;;;;;4966619;28;100942;-90
2023/07/21 11:08:41;;;;;;;1.52;1.10;;;;;;;;;;4968835;28;98622;-90
2023/07/21 11:11:11;;;;;;;1.00;1.00;;;;;;;;;;4967739;28;100517;-89
2023/07/21 11:13:39;;;;;;;3.28;1.15;;;;;;;;;;4970229;28;103019;-89
2023/07/21 11:16:05;;;;;;;7.93;1.50;;;;;;;;;;4969530;28;98591;-90
2023/07/21 11:18:38;;;;;;;1.75;1.30;;;;;;;;;;4968834;28;100199;-89
2023/07/21 11:21:04;;;;;;;1.13;1.00;;;;;;;;;;4971430;28;100567;-91
2023/07/21 11:23:31;;;;;;;2.45;1.15;;;;;;;;;;4973373;28;98547;-91
2023/07/21 11:26:02;;;;;;;4.20;1.23;;;;;;;;;;4966954;28;100833;-91
2023/07/21 11:28:29;;;;;;;5.25;1.52;;;;;;;;;;4963604;28;97996;-90
2023/07/21 11:30:55;;;;;;;3.15;1.17;;;;;;;;;;4958578;28;99511;-90
2023/07/21 11:33:23;;;;;;;4.10;1.88;;;;;;;;;;4953898;28;102726;-90
2023/07/21 11:35:52;;;;;;;4.75;1.88;;;;;;;;;;4966851;28;99395;-90
2023/07/21 11:38:18;;;;;;;1.83;1.48;;;;;;;;;;4967817;28;104221;-91
2023/07/21 11:40:48;;;;;;;3.03;1.73;;;;;;;;;;4974373;28;100443;-90
2023/07/21 11:43:14;;;;;;;4.10;1.30;;;;;;;;;;4963174;28;98619;-90
2023/07/21 11:45:41;;;;;;;1.30;1.00;;;;;;;;;;4974319;28;100026;-90
2023/07/21 11:48:13;;;;;;;4.13;0.95;;;;;;;;;;4968281;28;98553;-91
2023/07/21 11:50:41;;;;;;;1.30;1.17;;;;;;;;;;4970566;28;103059;-90
2023/07/21 11:53:07;;;;;;;2.75;1.02;;;;;;;;;;4969479;28;99521;-91
2023/07/21 11:55:34;;;;;;;9.93;1.60;;;;;;;;;;4968735;28;98527;-90
2023/07/21 11:58:00;;;;;;;4.00;1.15;;;;;;;;;;4969461;28;100299;-90
2023/07/21 12:00:27;;;;;;;1.92;1.00;;;;;;;;;;4969896;28;101001;-90
2023/07/21 12:02:58;;;;;;;1.95;1.40;;;;;;;;;;4969832;28;98699;-90
2023/07/21 12:05:24;;;;;;;4.10;1.60;;;;;;;;;;4968333;28;100672;-90
2023/07/21 12:07:52;;;;;;;1.85;1.35;;;;;;;;;;4969675;28;100229;-90
2023/07/21 12:10:19;;;;;;;1.23;1.10;;;;;;;;;;4968891;28;99157;-90
2023/07/21 12:12:45;;;;;;;2.33;1.20;;;;;;;;;;4968615;28;100570;-90
2023/07/21 12:15:12;;;;;;;1.05;0.80;;;;;;;;;;4967772;28;98567;-90
2023/07/21 12:17:38;;;;;;;2.25;0.88;;;;;;;;;;4969940;28;100517;-91
2023/07/21 12:20:11;;;;;;;1.60;0.95;;;;;;;;;;4969120;28;100161;-90
2023/07/21 12:22:39;;;;;;;2.35;0.93;;;;;;;;;;4971543;28;98521;-90
2023/07/21 12:25:06;;;;;;;1.35;1.00;;;;;;;;;;4970023;28;100220;-90
2023/07/21 12:27:32;;;;;;;5.57;1.00;;;;;;;;;;4975169;28;103535;-90
2023/07/21 12:29:59;;;;;;;1.13;1.05;;;;;;;;;;4972040;28;100253;-90
2023/07/21 12:32:26;;;;;;;1.88;1.30;;;;;;;;;;4970791;28;100542;-90
2023/07/21 12:34:53;;;;;;;1.00;0.95;;;;;;;;;;4970579;28;98888;-89
2023/07/21 12:37:19;;;;;;;3.65;1.83;;;;;;;;;;4971991;28;99032;-91
2023/07/21 12:39:46;;;;;;;1.67;1.40;;;;;;;;;;4969834;28;100642;-91
2023/07/21 12:42:12;;;;;;;1.88;1.38;;;;;;;;;;4971234;28;99886;-90
2023/07/21 12:44:39;;;;;;;3.63;1.75;;;;;;;;;;4971374;28;99095;-91
2023/07/21 12:47:06;;;;;;;2.00;1.58;;;;;;;;;;4972834;28;100607;-91
2023/07/21 12:49:32;;;;;;;4.88;1.60;;;;;;;;;;4972204;28;99367;-91
2023/07/21 12:51:59;;;;;;;3.03;1.42;;;;;;;;;;4971270;28;100527;-91
2023/07/21 12:54:25;;;;;;;3.38;1.40;;;;;;;;;;4971829;28;98470;-91
2023/07/21 12:56:52;;;;;;;2.22;1.75;;;;;;;;;;4973176;28;100275;-90
2023/07/21 12:59:18;;;;;;;3.78;2.10;;;;;;;;;;4970955;28;100590;-90
2023/07/21 13:01:44;;;;;;;1.52;1.42;;;;;;;;;;4972200;28;98807;-91
2023/07/21 13:04:15;;;;;;;3.03;2.22;;;;;;;;;;4971932;28;102027;-91
2023/07/21 13:06:46;;;;;;;3.15;2.03;;;;;;;;;;4968181;28;102861;-90
2023/07/21 13:09:13;;;;;;;3.25;1.90;;;;;;;;;;4963172;28;98523;-91
2023/07/21 13:11:39;;;;;;;4.35;2.30;;;;;;;;;;4974649;28;100382;-90
2023/07/21 13:14:06;;;;;;;2.28;2.08;;;;;;;;;;4970314;28;99308;-91
2023/07/21 13:16:32;;;;;;;2.88;2.22;;;;;;;;;;4976034;28;104124;-91
2023/07/21 13:18:59;;;;;;;3.78;2.03;;;;;;;;;;4973940;28;99928;-90
2023/07/21 13:21:25;;;;;;;2.55;2.05;;;;;;;;;;4971466;28;98602;-90
2023/07/21 13:23:52;;;;;;;4.55;2.42;;;;;;;;;;4971518;28;100186;-90
2023/07/21 13:26:18;;;;;;;5.18;2.33;;;;;;;;;;4972667;28;100841;-91
2023/07/21 13:28:44;;;;;;;3.53;2.15;;;;;;;;;;4968110;28;98800;-90
2023/07/21 13:31:11;;;;;;;2.20;2.10;;;;;;;;;;4971166;28;100184;-90
2023/07/21 13:33:37;;;;;;;4.57;2.13;;;;;;;;;;4968824;28;100169;-90
2023/07/21 13:36:05;;;;;;;3.47;2.10;;;;;;;;;;4971953;28;100107;-90
2023/07/21 13:38:31;;;;;;;3.53;2.30;;;;;;;;;;4969279;28;101493;-90
2023/07/21 13:40:58;;;;;;;2.40;2.20;;;;;;;;;;4972953;28;99529;-90
2023/07/21 13:43:24;;;;;;;2.60;1.63;;;;;;;;;;4971390;28;102780;-90
2023/07/21 13:45:51;;;;;;;1.85;1.60;;;;;;;;;;4970180;28;98671;-91
2023/07/21 13:48:17;;;;;;;2.47;1.92;;;;;;;;;;4970230;28;98574;-91
2023/07/21 13:50:44;;;;;;;4.13;2.00;;;;;;;;;;4968380;28;100119;-90
2023/07/21 13:53:10;;;;;;;3.15;1.90;;;;;;;;;;4970508;28;100497;-90
2023/07/21 13:55:37;;;;;;;3.00;1.88;;;;;;;;;;4972703;28;97868;-89
2023/07/21 13:58:03;;;;;;;1.77;1.63;;;;;;;;;;4966569;28;99399;-90
2023/07/21 14:00:30;;;;;;;1.77;1.63;;;;;;;;;;4971048;28;98970;-90
2023/07/21 14:02:56;;;;;;;6.35;2.03;;;;;;;;;;4970206;28;100517;-90
2023/07/21 14:05:24;;;;;;;7.18;2.80;;;;;;;;;;4970862;28;100770;-90
2023/07/21 14:07:51;;;;;;;4.43;3.00;;;;;;;;;;4967843;28;98965;-90
2023/07/21 14:10:17;;;;;;;5.35;3.05;;;;;;;;;;4968880;28;100489;-91
2023/07/21 14:12:44;;;;;;;6.65;3.20;;;;;;;;;;4967601;28;103392;-90
2023/07/21 14:15:12;;;;;;;5.95;3.47;;;;;;;;;;4970832;28;98565;-90
2023/07/21 14:17:38;;;;;;;3.85;3.03;;;;;;;;;;4972702;28;100599;-90
2023/07/21 14:20:09;;;;;;;9.45;3.72;;;;;;;;;;4971502;28;97929;-90
2023/07/21 14:22:37;;;;;;;5.05;3.45;;;;;;;;;;4969299;28;98776;-90
2023/07/21 14:25:05;;;;;;;5.90;3.63;;;;;;;;;;4970402;28;103356;-90
2023/07/21 14:27:31;;;;;;;5.95;4.03;;;;;;;;;;4969289;28;99448;-90
2023/07/21 14:29:57;;;;;;;6.03;4.18;;;;;;;;;;4968317;28;101023;-91
2023/07/21 14:32:26;;;;;;;10.50;4.95;;;;;;;;;;4968921;28;100138;-90
2023/07/21 14:34:52;;;;;;;10.15;4.47;;;;;;;;;;4969410;28;99600;-91
2023/07/21 14:37:19;;;;;;;10.75;4.80;;;;;;;;;;4974099;28;102820;-90